RYR2GR GCRR-LEZL
Flight info
| Callsign | RYR2GR |
|---|---|
| Flight time | 1h 34m |
| Altitude | 38000 |
| Route | KORAL UG5 SONSO DCT NIRAL UN871 ADUBI DCT VJF |
| Aircraft | B738/M-SDE3FGILRWY/SB1 |
Departure
| Time | 2026-05-04 09:08 |
|---|---|
| Airport | César Manrique-Lanzarote Airport (GCRR) |
Arrival
| Time | 2026-05-04 10:42 |
|---|---|
| Airport | Seville Airport (LEZL) |
| Time | Latitude | Longitude | Altitude | Speed | Heading |
|---|---|---|---|---|---|
| 2026-05-04 08:46 | 28.94944 | -13.60595 | 46 ft | 0 kts | 296° |
| 2026-05-04 09:03 | 28.94947 | -13.60602 | 49 ft | 3 kts | 296° |
| 2026-05-04 09:03 | 28.94961 | -13.60636 | 47 ft | 6 kts | 289° |
| 2026-05-04 09:03 | 28.94944 | -13.60672 | 48 ft | 6 kts | 211° |
| 2026-05-04 09:04 | 28.94906 | -13.60661 | 49 ft | 7 kts | 129° |
| 2026-05-04 09:04 | 28.94880 | -13.60606 | 49 ft | 9 kts | 117° |
| 2026-05-04 09:04 | 28.94829 | -13.60575 | 49 ft | 11 kts | 191° |
| 2026-05-04 09:04 | 28.94743 | -13.60617 | 49 ft | 16 kts | 206° |
| 2026-05-04 09:05 | 28.94633 | -13.60680 | 43 ft | 21 kts | 207° |
| 2026-05-04 09:05 | 28.94481 | -13.60767 | 34 ft | 27 kts | 206° |
| 2026-05-04 09:05 | 28.94309 | -13.60865 | 28 ft | 27 kts | 206° |
| 2026-05-04 09:05 | 28.94148 | -13.60960 | 28 ft | 25 kts | 207° |
| 2026-05-04 09:06 | 28.94016 | -13.61036 | 27 ft | 15 kts | 207° |
| 2026-05-04 09:07 | 28.93638 | -13.61047 | 26 ft | 13 kts | 26° |
| 2026-05-04 09:08 | 28.93765 | -13.60974 | 25 ft | 46 kts | 27° |
| 2026-05-04 09:08 | 28.94277 | -13.60679 | 30 ft | 117 kts | 26° |
| 2026-05-04 09:08 | 28.95168 | -13.60154 | 180 ft | 161 kts | 28° |
| 2026-05-04 09:08 | 28.96127 | -13.59532 | 1097 ft | 153 kts | 37° |
| 2026-05-04 09:09 | 28.96948 | -13.58763 | 1890 ft | 154 kts | 39° |
| 2026-05-04 09:09 | 28.97843 | -13.57977 | 2403 ft | 169 kts | 37° |
| 2026-05-04 09:09 | 28.98825 | -13.57148 | 2995 ft | 183 kts | 36° |
| 2026-05-04 09:09 | 28.99903 | -13.56249 | 3422 ft | 202 kts | 35° |
| 2026-05-04 09:10 | 29.01060 | -13.55181 | 3616 ft | 227 kts | 46° |
| 2026-05-04 09:10 | 29.02115 | -13.53691 | 3873 ft | 253 kts | 51° |
| 2026-05-04 09:10 | 29.03226 | -13.52080 | 4552 ft | 262 kts | 49° |
| 2026-05-04 09:10 | 29.04376 | -13.50436 | 5278 ft | 267 kts | 50° |
| 2026-05-04 09:11 | 29.05565 | -13.48754 | 5932 ft | 276 kts | 49° |
| 2026-05-04 09:11 | 29.06765 | -13.47064 | 6690 ft | 279 kts | 48° |
| 2026-05-04 09:11 | 29.08014 | -13.45315 | 7299 ft | 287 kts | 47° |
| 2026-05-04 09:11 | 29.09297 | -13.43542 | 7984 ft | 292 kts | 43° |
| 2026-05-04 09:12 | 29.10960 | -13.42242 | 8654 ft | 291 kts | 21° |
| 2026-05-04 09:12 | 29.12810 | -13.41280 | 9396 ft | 295 kts | 20° |
| 2026-05-04 09:14 | 29.27552 | -13.33017 | 12961 ft | 375 kts | 42° |
| 2026-05-04 09:14 | 29.29178 | -13.30648 | 13659 ft | 382 kts | 53° |
| 2026-05-04 09:14 | 29.30682 | -13.28117 | 14321 ft | 386 kts | 54° |
| 2026-05-04 09:14 | 29.32194 | -13.25551 | 14949 ft | 391 kts | 53° |
| 2026-05-04 09:15 | 29.33739 | -13.22973 | 15616 ft | 394 kts | 53° |
| 2026-05-04 09:15 | 29.35312 | -13.20384 | 16281 ft | 398 kts | 53° |
| 2026-05-04 09:15 | 29.36903 | -13.17775 | 16933 ft | 401 kts | 53° |
| 2026-05-04 09:15 | 29.38512 | -13.15137 | 17567 ft | 406 kts | 53° |
| 2026-05-04 09:17 | 29.51981 | -12.92938 | 21800 ft | 442 kts | 53° |
| 2026-05-04 09:18 | 29.53739 | -12.90026 | 22285 ft | 446 kts | 53° |
| 2026-05-04 09:18 | 29.55515 | -12.87080 | 22750 ft | 451 kts | 53° |
| 2026-05-04 09:18 | 29.57307 | -12.84106 | 23219 ft | 455 kts | 53° |
| 2026-05-04 09:18 | 29.59118 | -12.81100 | 23679 ft | 459 kts | 53° |
| 2026-05-04 09:19 | 29.60941 | -12.78069 | 24065 ft | 463 kts | 53° |
| 2026-05-04 09:19 | 29.62782 | -12.75008 | 24452 ft | 467 kts | 53° |
| 2026-05-04 09:19 | 29.64636 | -12.71923 | 24848 ft | 471 kts | 53° |
| 2026-05-04 09:19 | 29.66475 | -12.68858 | 25225 ft | 474 kts | 53° |
| 2026-05-04 09:20 | 29.68352 | -12.65730 | 25620 ft | 477 kts | 53° |
| 2026-05-04 09:20 | 29.70242 | -12.62576 | 25999 ft | 480 kts | 53° |
| 2026-05-04 09:20 | 29.72171 | -12.59358 | 26386 ft | 483 kts | 53° |
| 2026-05-04 09:20 | 29.74057 | -12.56203 | 26745 ft | 487 kts | 53° |
| 2026-05-04 09:21 | 29.76000 | -12.52936 | 27106 ft | 490 kts | 53° |
| 2026-05-04 09:21 | 29.77901 | -12.49729 | 27454 ft | 493 kts | 53° |
| 2026-05-04 09:21 | 29.79839 | -12.46454 | 27797 ft | 496 kts | 53° |
| 2026-05-04 09:21 | 29.81785 | -12.43161 | 28224 ft | 498 kts | 53° |
| 2026-05-04 09:22 | 29.83730 | -12.39868 | 28672 ft | 498 kts | 53° |
| 2026-05-04 09:22 | 29.85685 | -12.36558 | 28977 ft | 502 kts | 53° |
| 2026-05-04 09:22 | 29.87656 | -12.33221 | 29240 ft | 506 kts | 53° |
| 2026-05-04 09:22 | 29.89640 | -12.29858 | 29547 ft | 509 kts | 53° |
| 2026-05-04 09:23 | 29.91633 | -12.26477 | 29869 ft | 511 kts | 53° |
| 2026-05-04 09:23 | 29.93635 | -12.23077 | 30186 ft | 514 kts | 53° |
| 2026-05-04 09:23 | 29.95646 | -12.19658 | 30438 ft | 516 kts | 53° |
| 2026-05-04 09:23 | 29.97666 | -12.16222 | 30687 ft | 519 kts | 53° |
| 2026-05-04 09:25 | 30.14708 | -11.95063 | 32839 ft | 514 kts | 39° |
| 2026-05-04 09:25 | 30.17289 | -11.92207 | 33169 ft | 514 kts | 39° |
| 2026-05-04 09:26 | 30.19862 | -11.89337 | 33497 ft | 514 kts | 39° |
| 2026-05-04 09:26 | 30.22427 | -11.86462 | 33801 ft | 514 kts | 39° |
| 2026-05-04 09:26 | 30.24991 | -11.83580 | 34095 ft | 514 kts | 39° |
| 2026-05-04 09:26 | 30.27551 | -11.80697 | 34370 ft | 514 kts | 39° |
| 2026-05-04 09:27 | 30.30109 | -11.77813 | 34675 ft | 512 kts | 39° |
| 2026-05-04 09:27 | 30.32658 | -11.74939 | 34981 ft | 511 kts | 39° |
| 2026-05-04 09:27 | 30.35201 | -11.72070 | 35263 ft | 510 kts | 39° |
| 2026-05-04 09:27 | 30.37740 | -11.69207 | 35523 ft | 510 kts | 39° |
| 2026-05-04 09:28 | 30.40278 | -11.66343 | 35786 ft | 509 kts | 39° |
| 2026-05-04 09:28 | 30.42808 | -11.63485 | 36065 ft | 508 kts | 39° |
| 2026-05-04 09:28 | 30.45332 | -11.60632 | 36397 ft | 506 kts | 39° |
| 2026-05-04 09:28 | 30.47847 | -11.57787 | 36702 ft | 504 kts | 39° |
| 2026-05-04 09:29 | 30.50356 | -11.54947 | 36936 ft | 504 kts | 39° |
| 2026-05-04 09:29 | 30.52866 | -11.52105 | 37135 ft | 505 kts | 39° |
| 2026-05-04 09:29 | 30.55373 | -11.49263 | 37413 ft | 503 kts | 39° |
| 2026-05-04 09:29 | 30.57835 | -11.46469 | 37722 ft | 501 kts | 39° |
| 2026-05-04 09:30 | 30.60349 | -11.43612 | 38019 ft | 498 kts | 39° |
| 2026-05-04 09:30 | 30.62831 | -11.40793 | 38118 ft | 501 kts | 39° |
| 2026-05-04 09:30 | 30.67819 | -11.35123 | 38107 ft | 501 kts | 39° |
| 2026-05-04 09:31 | 30.72773 | -11.29475 | 38099 ft | 497 kts | 39° |
| 2026-05-04 09:31 | 30.77657 | -11.23900 | 38124 ft | 494 kts | 39° |
| 2026-05-04 09:32 | 30.82551 | -11.18308 | 38107 ft | 492 kts | 39° |
| 2026-05-04 09:34 | 31.02063 | -10.95932 | 38112 ft | 495 kts | 39° |
| 2026-05-04 09:34 | 31.06979 | -10.90272 | 38143 ft | 498 kts | 39° |
| 2026-05-04 09:35 | 31.11920 | -10.84574 | 38108 ft | 500 kts | 39° |
| 2026-05-04 09:35 | 31.16874 | -10.78851 | 38101 ft | 502 kts | 39° |
| 2026-05-04 09:37 | 31.36646 | -10.55919 | 38132 ft | 499 kts | 39° |
| 2026-05-04 09:38 | 31.41566 | -10.50192 | 38100 ft | 498 kts | 40° |
| 2026-05-04 09:38 | 31.46470 | -10.44474 | 38099 ft | 497 kts | 40° |
| 2026-05-04 09:39 | 31.51357 | -10.38768 | 38095 ft | 495 kts | 40° |
| 2026-05-04 09:39 | 31.56224 | -10.33075 | 38103 ft | 494 kts | 40° |
| 2026-05-04 09:40 | 31.61083 | -10.27384 | 38103 ft | 493 kts | 40° |
| 2026-05-04 09:40 | 31.65933 | -10.21694 | 38105 ft | 493 kts | 40° |
| 2026-05-04 09:42 | 31.85356 | -9.98818 | 38108 ft | 495 kts | 40° |
| 2026-05-04 09:43 | 31.90220 | -9.93066 | 38104 ft | 496 kts | 40° |
| 2026-05-04 09:43 | 31.95088 | -9.87301 | 38110 ft | 497 kts | 40° |
| 2026-05-04 09:44 | 31.99961 | -9.81520 | 38103 ft | 498 kts | 40° |
| 2026-05-04 09:46 | 32.19433 | -9.58326 | 38111 ft | 497 kts | 40° |
| 2026-05-04 09:46 | 32.23466 | -9.53504 | 38111 ft | 496 kts | 40° |
| 2026-05-04 09:47 | 32.28316 | -9.47696 | 38128 ft | 496 kts | 40° |
| 2026-05-04 09:49 | 32.47632 | -9.24471 | 38110 ft | 494 kts | 40° |
| 2026-05-04 09:51 | 32.64455 | -9.04121 | 38116 ft | 494 kts | 41° |
| 2026-05-04 09:51 | 32.69267 | -8.98279 | 38113 ft | 495 kts | 41° |
| 2026-05-04 09:52 | 32.74072 | -8.92435 | 38113 ft | 495 kts | 41° |
| 2026-05-04 09:52 | 32.78844 | -8.86622 | 38113 ft | 495 kts | 41° |
| 2026-05-04 09:53 | 32.83646 | -8.80763 | 38110 ft | 495 kts | 41° |
| 2026-05-04 09:53 | 32.88481 | -8.74854 | 38114 ft | 495 kts | 41° |
| 2026-05-04 09:54 | 32.93281 | -8.68977 | 38121 ft | 495 kts | 41° |
| 2026-05-04 09:54 | 32.98050 | -8.63129 | 38114 ft | 495 kts | 41° |
| 2026-05-04 09:55 | 33.02846 | -8.57237 | 38115 ft | 495 kts | 41° |
| 2026-05-04 09:55 | 33.07641 | -8.51338 | 38116 ft | 495 kts | 41° |
| 2026-05-04 09:56 | 33.12432 | -8.45432 | 38113 ft | 495 kts | 41° |
| 2026-05-04 09:56 | 33.17225 | -8.39516 | 38110 ft | 496 kts | 41° |
| 2026-05-04 09:57 | 33.22430 | -8.34286 | 38097 ft | 484 kts | 26° |
| 2026-05-04 09:57 | 33.28137 | -8.30057 | 38105 ft | 483 kts | 25° |
| 2026-05-04 09:58 | 33.33863 | -8.25853 | 38115 ft | 483 kts | 25° |
| 2026-05-04 09:58 | 33.39578 | -8.21585 | 38116 ft | 485 kts | 26° |
| 2026-05-04 10:00 | 33.62452 | -8.04246 | 38116 ft | 488 kts | 26° |
| 2026-05-04 10:04 | 34.02626 | -7.73533 | 38130 ft | 490 kts | 26° |
| 2026-05-04 10:04 | 34.08373 | -7.69112 | 38126 ft | 490 kts | 26° |
| 2026-05-04 10:05 | 34.14085 | -7.64709 | 38127 ft | 491 kts | 26° |
| 2026-05-04 10:05 | 34.19842 | -7.60265 | 38128 ft | 491 kts | 26° |
| 2026-05-04 10:06 | 34.25601 | -7.55812 | 38165 ft | 492 kts | 26° |
| 2026-05-04 10:06 | 34.31378 | -7.51338 | 38135 ft | 493 kts | 26° |
| 2026-05-04 10:08 | 34.51646 | -7.35580 | 38156 ft | 496 kts | 25° |
| 2026-05-04 10:08 | 34.57454 | -7.31048 | 38130 ft | 497 kts | 25° |
| 2026-05-04 10:09 | 34.63268 | -7.26503 | 38128 ft | 497 kts | 25° |
| 2026-05-04 10:09 | 34.69042 | -7.21982 | 38124 ft | 497 kts | 25° |
| 2026-05-04 10:10 | 34.74853 | -7.17423 | 38125 ft | 497 kts | 25° |
| 2026-05-04 10:10 | 34.80666 | -7.12856 | 38146 ft | 498 kts | 25° |
| 2026-05-04 10:11 | 34.86489 | -7.08274 | 38131 ft | 498 kts | 25° |
| 2026-05-04 10:11 | 34.92305 | -7.03688 | 38121 ft | 498 kts | 25° |
| 2026-05-04 10:12 | 34.98114 | -6.99100 | 38120 ft | 497 kts | 25° |
| 2026-05-04 10:12 | 35.03920 | -6.94507 | 38119 ft | 497 kts | 25° |
| 2026-05-04 10:13 | 35.09720 | -6.89911 | 38112 ft | 497 kts | 26° |
| 2026-05-04 10:13 | 35.15513 | -6.85311 | 38118 ft | 496 kts | 26° |
| 2026-05-04 10:14 | 35.21295 | -6.80713 | 38116 ft | 496 kts | 26° |
| 2026-05-04 10:16 | 35.41510 | -6.64731 | 35970 ft | 486 kts | 25° |
| 2026-05-04 10:16 | 35.44377 | -6.62542 | 35416 ft | 486 kts | 25° |
| 2026-05-04 10:16 | 35.47251 | -6.60346 | 34834 ft | 487 kts | 25° |
| 2026-05-04 10:16 | 35.50126 | -6.58142 | 34218 ft | 488 kts | 25° |
| 2026-05-04 10:17 | 35.53009 | -6.55923 | 33513 ft | 490 kts | 25° |
| 2026-05-04 10:17 | 35.55896 | -6.53693 | 32850 ft | 491 kts | 25° |
| 2026-05-04 10:19 | 35.75620 | -6.38381 | 29605 ft | 469 kts | 25° |
| 2026-05-04 10:19 | 35.78367 | -6.36244 | 29128 ft | 465 kts | 25° |
| 2026-05-04 10:19 | 35.81087 | -6.34125 | 28657 ft | 461 kts | 26° |
| 2026-05-04 10:19 | 35.83784 | -6.32021 | 28196 ft | 457 kts | 26° |
| 2026-05-04 10:20 | 35.86424 | -6.29859 | 27803 ft | 454 kts | 28° |
| 2026-05-04 10:20 | 35.89010 | -6.27646 | 27344 ft | 451 kts | 29° |
| 2026-05-04 10:20 | 35.91566 | -6.25427 | 26912 ft | 448 kts | 29° |
| 2026-05-04 10:20 | 35.94103 | -6.23222 | 26468 ft | 444 kts | 29° |
| 2026-05-04 10:21 | 35.96626 | -6.21041 | 26028 ft | 441 kts | 29° |
| 2026-05-04 10:21 | 35.99136 | -6.18881 | 25590 ft | 438 kts | 29° |
| 2026-05-04 10:21 | 36.01598 | -6.16768 | 25159 ft | 436 kts | 29° |
| 2026-05-04 10:21 | 36.04084 | -6.14639 | 24712 ft | 434 kts | 30° |
| 2026-05-04 10:22 | 36.09020 | -6.10407 | 23825 ft | 430 kts | 30° |
| 2026-05-04 10:22 | 36.11469 | -6.08304 | 23326 ft | 428 kts | 30° |
| 2026-05-04 10:22 | 36.13910 | -6.06206 | 22836 ft | 426 kts | 30° |
| 2026-05-04 10:23 | 36.16331 | -6.04123 | 22386 ft | 422 kts | 30° |
| 2026-05-04 10:23 | 36.18729 | -6.02058 | 21946 ft | 418 kts | 30° |
| 2026-05-04 10:25 | 36.36426 | -5.92831 | 19166 ft | 383 kts | 11° |
| 2026-05-04 10:25 | 36.38978 | -5.91886 | 18736 ft | 382 kts | 11° |
| 2026-05-04 10:25 | 36.41512 | -5.90939 | 18314 ft | 380 kts | 12° |
| 2026-05-04 10:25 | 36.44033 | -5.89991 | 17851 ft | 377 kts | 12° |
| 2026-05-04 10:26 | 36.46536 | -5.89045 | 17418 ft | 374 kts | 12° |
| 2026-05-04 10:26 | 36.49018 | -5.88105 | 17005 ft | 371 kts | 12° |
| 2026-05-04 10:26 | 36.51477 | -5.87172 | 16594 ft | 368 kts | 12° |
| 2026-05-04 10:26 | 36.53922 | -5.86244 | 16193 ft | 366 kts | 12° |
| 2026-05-04 10:27 | 36.56344 | -5.85323 | 15799 ft | 363 kts | 12° |
| 2026-05-04 10:27 | 36.58751 | -5.84409 | 15404 ft | 360 kts | 12° |
| 2026-05-04 10:27 | 36.61143 | -5.83499 | 15040 ft | 358 kts | 12° |
| 2026-05-04 10:27 | 36.63517 | -5.82595 | 14644 ft | 356 kts | 12° |
| 2026-05-04 10:28 | 36.65883 | -5.81695 | 14242 ft | 355 kts | 12° |
| 2026-05-04 10:28 | 36.68239 | -5.80798 | 13842 ft | 353 kts | 12° |
| 2026-05-04 10:28 | 36.70584 | -5.79904 | 13412 ft | 352 kts | 12° |
| 2026-05-04 10:28 | 36.72917 | -5.79013 | 12995 ft | 349 kts | 12° |
| 2026-05-04 10:29 | 36.75232 | -5.78129 | 12609 ft | 347 kts | 12° |
| 2026-05-04 10:29 | 36.77532 | -5.77250 | 12220 ft | 345 kts | 12° |
| 2026-05-04 10:29 | 36.79813 | -5.76378 | 11836 ft | 342 kts | 12° |
| 2026-05-04 10:29 | 36.82081 | -5.75511 | 11460 ft | 340 kts | 12° |
| 2026-05-04 10:30 | 36.84332 | -5.74649 | 11077 ft | 337 kts | 12° |
| 2026-05-04 10:30 | 36.86536 | -5.73804 | 10725 ft | 335 kts | 12° |
| 2026-05-04 10:30 | 36.88745 | -5.72957 | 10520 ft | 328 kts | 12° |
| 2026-05-04 10:30 | 36.90895 | -5.72131 | 10353 ft | 319 kts | 12° |
| 2026-05-04 10:31 | 36.92986 | -5.71326 | 10214 ft | 310 kts | 12° |
| 2026-05-04 10:31 | 36.95019 | -5.70544 | 10070 ft | 302 kts | 12° |
| 2026-05-04 10:32 | 37.06807 | -5.66016 | 8319 ft | 288 kts | 13° |
| 2026-05-04 10:33 | 37.08714 | -5.65282 | 8038 ft | 286 kts | 13° |
| 2026-05-04 10:33 | 37.10608 | -5.64553 | 7764 ft | 284 kts | 13° |
| 2026-05-04 10:33 | 37.12486 | -5.63828 | 7482 ft | 282 kts | 14° |
| 2026-05-04 10:33 | 37.14358 | -5.63106 | 7179 ft | 281 kts | 14° |
| 2026-05-04 10:34 | 37.16220 | -5.62387 | 6907 ft | 279 kts | 14° |
| 2026-05-04 10:34 | 37.18081 | -5.61757 | 6620 ft | 275 kts | 5° |
| 2026-05-04 10:34 | 37.19978 | -5.61622 | 6333 ft | 271 kts | 358° |
| 2026-05-04 10:34 | 37.21859 | -5.61550 | 6040 ft | 270 kts | 359° |
| 2026-05-04 10:35 | 37.23732 | -5.61445 | 5747 ft | 268 kts | 359° |
| 2026-05-04 10:35 | 37.25590 | -5.61327 | 5462 ft | 267 kts | 360° |
| 2026-05-04 10:35 | 37.27412 | -5.61206 | 5189 ft | 264 kts | 360° |
| 2026-05-04 10:35 | 37.29217 | -5.61082 | 4946 ft | 255 kts | 0° |
| 2026-05-04 10:36 | 37.30401 | -5.61001 | 4750 ft | 249 kts | 0° |
| 2026-05-04 10:36 | 37.32632 | -5.60846 | 4406 ft | 235 kts | 359° |
| 2026-05-04 10:36 | 37.34236 | -5.60736 | 4143 ft | 226 kts | 0° |
| 2026-05-04 10:36 | 37.35788 | -5.60629 | 3899 ft | 221 kts | 1° |
| 2026-05-04 10:37 | 37.37312 | -5.60524 | 3698 ft | 218 kts | 0° |
| 2026-05-04 10:37 | 37.38781 | -5.60676 | 3570 ft | 210 kts | 333° |
| 2026-05-04 10:37 | 37.39555 | -5.61408 | 3490 ft | 207 kts | 305° |
| 2026-05-04 10:37 | 37.40329 | -5.62954 | 3400 ft | 211 kts | 299° |
| 2026-05-04 10:39 | 37.41874 | -5.72151 | 2510 ft | 165 kts | 270° |
| 2026-05-04 10:39 | 37.41868 | -5.73579 | 2298 ft | 165 kts | 270° |
| 2026-05-04 10:39 | 37.41860 | -5.75020 | 2075 ft | 164 kts | 270° |
| 2026-05-04 10:40 | 37.41853 | -5.76454 | 1859 ft | 164 kts | 270° |
| 2026-05-04 10:40 | 37.41844 | -5.77872 | 1639 ft | 159 kts | 270° |
| 2026-05-04 10:40 | 37.41839 | -5.79214 | 1428 ft | 149 kts | 270° |
| 2026-05-04 10:40 | 37.41834 | -5.80474 | 1217 ft | 140 kts | 270° |
| 2026-05-04 10:41 | 37.41824 | -5.81678 | 1041 ft | 137 kts | 269° |
| 2026-05-04 10:41 | 37.41815 | -5.82878 | 878 ft | 138 kts | 270° |
| 2026-05-04 10:41 | 37.41806 | -5.84101 | 713 ft | 143 kts | 270° |
| 2026-05-04 10:41 | 37.41811 | -5.85365 | 509 ft | 145 kts | 268° |
| 2026-05-04 10:42 | 37.41800 | -5.86640 | 286 ft | 145 kts | 268° |
| 2026-05-04 10:42 | 37.41798 | -5.87898 | 121 ft | 141 kts | 268° |
| 2026-05-04 10:42 | 37.41795 | -5.89016 | 102 ft | 110 kts | 269° |
| 2026-05-04 10:42 | 37.41795 | -5.89695 | 97 ft | 34 kts | 271° |
| 2026-05-04 10:43 | 37.41836 | -5.89803 | 97 ft | 10 kts | 325° |
| 2026-05-04 10:44 | 37.42135 | -5.90005 | 93 ft | 6 kts | 315° |
| 2026-05-04 10:45 | 37.42151 | -5.90024 | 93 ft | 2 kts | 315° |
| 2026-05-04 10:45 | 37.42154 | -5.90028 | 93 ft | 0 kts | 315° |